Time;durP1;ratioP1;P1;durP2;ratioP2;P2;SDS_P1;SDS_P2;PMS_P1;PMS_P2;Temp;Humidity;BMP_temperature;BMP_pressure;BME280_temperature;BME280_humidity;BME280_pressure;Samples;Min_cycle;Max_cycle;Signal;HPM_P1;HPM_P2
2022/05/24 00:01:06;;;;;;;7.95;2.35;;;;;;;14.01;61.44;100879.34;1717000;83;25546;-59
2022/05/24 00:03:34;;;;;;;2.58;2.25;;;;;;;13.99;61.28;100887.63;1671579;83;25815;-59
2022/05/24 00:06:02;;;;;;;1.72;1.57;;;;;;;13.96;61.29;100874.41;1697083;82;25755;-59
2022/05/24 00:08:29;;;;;;;5.37;2.52;;;;;;;13.90;61.16;100877.23;1700166;84;27478;-59
2022/05/24 00:10:56;;;;;;;4.78;2.90;;;;;;;13.89;61.20;100870.63;1710714;81;25850;-59
2022/05/24 00:13:24;;;;;;;10.18;3.08;;;;;;;13.85;61.28;100870.09;1707069;83;25579;-59
2022/05/24 00:15:51;;;;;;;8.43;3.60;;;;;;;13.78;61.49;100869.02;1703224;83;25743;-59
2022/05/24 00:18:25;;;;;;;8.38;3.22;;;;;;;13.72;61.44;100863.73;1714075;82;26744;-59
2022/05/24 00:20:59;;;;;;;4.22;2.22;;;;;;;13.69;61.60;100862.67;1718038;83;27606;-59
2022/05/24 00:23:29;;;;;;;7.28;2.50;;;;;;;13.70;61.73;100873.84;1728271;82;25757;-59
2022/05/24 00:26:00;;;;;;;8.23;3.20;;;;;;;13.71;62.39;100875.55;1733307;82;25850;-59
2022/05/24 00:28:30;;;;;;;5.50;2.80;;;;;;;13.72;62.17;100870.48;1732594;82;25679;-59
2022/05/24 00:30:57;;;;;;;6.03;2.47;;;;;;;13.74;62.47;100872.55;1729117;82;26173;-59
2022/05/24 00:33:26;;;;;;;7.83;2.35;;;;;;;13.76;62.94;100873.21;1729371;82;27640;-59
2022/05/24 00:35:54;;;;;;;6.15;2.72;;;;;;;13.72;62.65;100874.54;1729439;82;25795;-58
2022/05/24 00:38:28;;;;;;;4.72;3.00;;;;;;;13.64;62.43;100876.30;1731173;82;25761;-59
2022/05/24 00:41:28;;;;;;;4.87;2.85;;;;;;;13.57;62.44;100870.69;1733177;82;25784;-59
2022/05/24 00:44:07;;;;;;;8.68;3.35;;;;;;;13.54;62.77;100873.69;1702980;84;26187;-59
2022/05/24 00:46:51;;;;;;;12.03;2.95;;;;;;;13.43;62.50;100878.81;1723146;81;27479;-59
2022/05/24 00:49:45;;;;;;;6.30;2.80;;;;;;;13.43;62.78;100872.06;1735129;81;25552;-59
2022/05/24 00:52:19;;;;;;;6.35;2.62;;;;;;;13.49;62.99;100872.79;1735910;82;25674;-59
2022/05/24 00:54:46;;;;;;;7.83;2.90;;;;;;;13.53;62.75;100874.69;1734329;82;26484;-59
2022/05/24 00:57:35;;;;;;;9.18;2.80;;;;;;;13.54;62.78;100881.27;1735950;82;25751;-59
2022/05/24 01:00:14;;;;;;;8.03;3.40;;;;;;;13.52;62.53;100877.03;1735435;82;26760;-59
2022/05/24 01:02:41;;;;;;;7.67;3.15;;;;;;;13.52;62.31;100871.14;1703522;84;25889;-59
2022/05/24 01:05:13;;;;;;;5.85;3.00;;;;;;;13.53;62.21;100879.61;1706484;82;25733;-58
2022/05/24 01:07:42;;;;;;;13.40;3.75;;;;;;;13.50;62.06;100877.67;1704773;84;25626;-58
2022/05/24 01:10:19;;;;;;;5.12;3.67;;;;;;;13.43;62.08;100877.47;1703389;84;25721;-59
2022/05/24 01:12:52;;;;;;;14.63;3.60;;;;;;;13.33;62.20;100879.34;1687389;84;28160;-59
2022/05/24 01:15:21;;;;;;;4.60;3.87;;;;;;;13.23;62.20;100878.03;1700015;84;25823;-59
2022/05/24 01:17:49;;;;;;;6.35;3.98;;;;;;;13.14;62.62;100880.64;1703051;84;25824;-58
2022/05/24 01:20:17;;;;;;;10.85;3.80;;;;;;;13.05;62.87;100878.84;1704399;84;25791;-58
2022/05/24 01:23:18;;;;;;;6.05;3.77;;;;;;;12.97;62.90;100885.00;1703250;84;25772;-59
2022/05/24 01:25:56;;;;;;;4.40;2.85;;;;;;;12.90;62.77;100884.39;1703605;83;27462;-59
2022/05/24 01:28:53;;;;;;;4.42;2.58;;;;;;;12.84;63.47;100889.88;1701334;83;25967;-61
2022/05/24 01:31:23;;;;;;;3.47;2.40;;;;;;;12.78;63.39;100886.42;1703551;82;25811;-59
2022/05/24 01:36:41;;;;;;;3.30;2.62;;;;;;;12.61;64.31;100882.64;1704571;84;25641;-59
2022/05/24 01:39:11;;;;;;;4.72;2.27;;;;;;;12.52;64.60;100888.43;1705619;84;27493;-58
2022/05/24 01:41:45;;;;;;;3.70;2.62;;;;;;;12.43;65.47;100888.80;1707695;81;25480;-58
2022/05/24 01:44:13;;;;;;;4.83;2.50;;;;;;;12.33;65.78;100878.52;1756706;81;25887;-61
2022/05/24 01:46:44;;;;;;;5.47;2.40;;;;;;;12.29;65.92;100882.00;1735734;81;27699;-59
2022/05/24 01:49:22;;;;;;;6.80;2.42;;;;;;;12.27;66.14;100884.50;1734818;82;25902;-59
2022/05/24 01:51:57;;;;;;;3.35;2.15;;;;;;;12.25;66.18;100890.05;1734036;82;27447;-59
2022/05/24 01:54:23;;;;;;;3.15;2.30;;;;;;;12.30;67.07;100886.92;1703103;84;26132;-59
2022/05/24 01:57:12;;;;;;;2.72;2.05;;;;;;;12.32;67.04;100888.98;1704576;84;25775;-59
2022/05/24 01:59:44;;;;;;;3.47;2.27;;;;;;;12.32;66.49;100884.42;1702678;84;25756;-59
2022/05/24 02:02:11;;;;;;;9.03;2.62;;;;;;;12.35;66.28;100887.32;1705253;84;25776;-59
2022/05/24 02:04:39;;;;;;;8.60;2.62;;;;;;;12.40;66.35;100893.15;1706333;84;27347;-59
2022/05/24 02:07:14;;;;;;;7.67;2.50;;;;;;;12.40;66.25;100892.28;1681441;84;25714;-59
2022/05/24 02:09:46;;;;;;;10.53;2.62;;;;;;;12.43;66.22;100902.80;1680216;84;25817;-58
2022/05/24 02:12:30;;;;;;;7.85;2.55;;;;;;;12.47;66.24;100901.49;1705672;84;25829;-58
2022/05/24 02:15:17;;;;;;;7.17;2.45;;;;;;;12.52;66.20;100897.36;1706251;84;25812;-59
2022/05/24 02:17:48;;;;;;;9.83;2.67;;;;;;;12.59;66.12;100902.20;1705428;84;28451;-59
2022/05/24 02:20:26;;;;;;;10.40;2.60;;;;;;;12.64;66.08;100898.55;1698013;84;25904;-58
2022/05/24 02:22:53;;;;;;;8.15;2.58;;;;;;;12.68;66.04;100898.63;1703565;83;25822;-59
2022/05/24 02:25:46;;;;;;;4.05;2.17;;;;;;;12.68;65.94;100898.11;1703659;81;25700;-59
2022/05/24 02:28:16;;;;;;;3.50;2.30;;;;;;;12.71;65.83;100902.36;1703194;83;25784;-59
2022/05/24 02:30:50;;;;;;;3.72;2.20;;;;;;;12.72;65.79;100900.52;1704865;84;28306;-59
2022/05/24 02:33:20;;;;;;;5.42;2.98;;;;;;;12.68;65.83;100898.63;1703972;84;25792;-59
2022/05/24 02:35:48;;;;;;;5.92;3.00;;;;;;;12.64;65.75;100902.59;1704372;84;25770;-59
2022/05/24 02:38:16;;;;;;;4.95;2.52;;;;;;;12.57;65.56;100894.23;1703171;84;25821;-59
2022/05/24 02:43:30;;;;;;;8.25;2.80;;;;;;;12.47;65.60;100906.41;1761620;79;27527;-60
2022/05/24 02:45:57;;;;;;;10.00;3.50;;;;;;;12.40;65.70;100904.42;1751230;81;26114;-59
2022/05/24 02:48:24;;;;;;;6.08;2.85;;;;;;;12.35;65.67;100910.25;1705616;82;25716;-59
2022/05/24 02:50:51;;;;;;;6.95;2.75;;;;;;;12.30;65.64;100915.24;1704934;84;25596;-59
2022/05/24 02:53:17;;;;;;;5.28;2.95;;;;;;;12.23;65.63;100914.95;1705144;82;25778;-59
2022/05/24 02:55:44;;;;;;;3.72;2.83;;;;;;;12.17;65.75;100910.98;1704869;82;27471;-59
2022/05/24 02:58:10;;;;;;;7.53;3.35;;;;;;;12.13;65.72;100914.98;1703636;82;25672;-59
2022/05/24 03:00:38;;;;;;;5.50;3.33;;;;;;;12.09;65.86;100915.41;1708289;82;25671;-59
2022/05/24 03:03:05;;;;;;;9.20;3.60;;;;;;;12.04;65.89;100915.83;1708620;82;25823;-59
2022/05/24 03:05:31;;;;;;;4.40;3.20;;;;;;;12.00;65.98;100917.09;1688485;84;25813;-59
2022/05/24 03:10:44;;;;;;;6.10;3.58;;;;;;;11.96;66.44;100910.27;1707724;83;25818;-58
2022/05/24 03:15:56;;;;;;;4.28;3.60;;;;;;;11.97;67.14;100907.45;1706923;83;25520;-59
2022/05/24 03:18:24;;;;;;;4.50;2.87;;;;;;;11.97;67.07;100903.41;1706355;81;25747;-59
2022/05/24 03:20:51;;;;;;;6.87;3.10;;;;;;;11.98;67.21;100904.25;1708946;82;28169;-59
2022/05/24 03:23:19;;;;;;;6.40;3.27;;;;;;;12.01;67.26;100908.85;1708489;83;25737;-59
2022/05/24 03:25:46;;;;;;;8.23;3.00;;;;;;;12.03;67.34;100906.88;1708558;82;25462;-59
2022/05/24 03:28:13;;;;;;;6.53;3.27;;;;;;;12.07;67.46;100900.70;1692528;81;26413;-59
2022/05/24 03:30:43;;;;;;;6.60;3.70;;;;;;;12.09;67.27;100900.06;1707248;83;27375;-59
2022/05/24 03:33:13;;;;;;;4.90;3.92;;;;;;;12.13;67.36;100907.37;1677408;84;26872;-59
2022/05/24 03:35:41;;;;;;;12.07;3.60;;;;;;;12.18;67.85;100901.91;1692280;84;25778;-58
2022/05/24 03:38:09;;;;;;;15.80;6.15;;;;;;;12.22;67.67;100903.81;1704308;82;25829;-59
2022/05/24 03:40:36;;;;;;;16.05;4.08;;;;;;;12.27;67.84;100910.99;1703458;84;26158;-59
2022/05/24 03:43:12;;;;;;;10.15;5.67;;;;;;;12.32;67.99;100914.61;1719244;82;25955;-59
2022/05/24 03:45:40;;;;;;;11.10;4.00;;;;;;;12.41;68.06;100924.53;1729425;82;27305;-59
2022/05/24 03:48:09;;;;;;;7.17;4.22;;;;;;;12.45;68.25;100921.88;1750587;81;25647;-59
2022/05/24 03:50:36;;;;;;;10.03;5.08;;;;;;;12.51;67.85;100919.95;1731006;82;25739;-59
2022/05/24 03:53:04;;;;;;;12.03;4.60;;;;;;;12.57;67.58;100917.16;1728262;82;25712;-59
2022/05/24 03:55:31;;;;;;;12.45;5.03;;;;;;;12.64;67.38;100917.44;1728276;82;25964;-58
2022/05/24 03:58:04;;;;;;;9.13;4.08;;;;;;;12.70;67.11;100914.66;1735555;82;27297;-58
2022/05/24 04:00:40;;;;;;;12.68;4.72;;;;;;;12.75;66.93;100919.97;1733134;82;25862;-59
2022/05/24 04:03:08;;;;;;;14.00;4.35;;;;;;;12.76;66.88;100916.28;1710755;83;25742;-59
2022/05/24 04:05:36;;;;;;;7.35;4.62;;;;;;;12.71;66.75;100912.31;1709691;83;26133;-60
2022/05/24 04:08:04;;;;;;;6.80;4.40;;;;;;;12.68;66.74;100910.77;1709459;83;25532;-60
2022/05/24 04:10:35;;;;;;;16.82;4.92;;;;;;;12.70;66.61;100914.14;1715078;83;27542;-59
2022/05/24 04:13:03;;;;;;;10.82;4.55;;;;;;;12.71;66.58;100914.50;1735056;82;25826;-60
2022/05/24 04:15:30;;;;;;;8.03;4.72;;;;;;;12.67;66.57;100914.46;1735650;82;25494;-59
2022/05/24 04:17:57;;;;;;;10.60;4.53;;;;;;;12.67;66.70;100915.30;1735311;82;26438;-59
2022/05/24 04:20:27;;;;;;;11.50;4.30;;;;;;;12.70;66.65;100920.89;1736902;82;25603;-59
2022/05/24 04:22:56;;;;;;;12.78;4.53;;;;;;;12.68;66.92;100915.66;1735556;82;27479;-59
2022/05/24 04:25:24;;;;;;;16.77;4.33;;;;;;;12.71;66.77;100921.77;1736146;82;25925;-59
2022/05/24 04:27:52;;;;;;;9.00;5.10;;;;;;;12.73;66.87;100915.73;1712375;82;25785;-60
2022/05/24 04:30:23;;;;;;;10.30;5.65;;;;;;;12.75;66.73;100918.63;1735438;82;25728;-59
2022/05/24 04:32:51;;;;;;;10.23;4.67;;;;;;;12.77;67.17;100922.03;1735346;82;25856;-59
2022/05/24 04:35:18;;;;;;;9.68;4.22;;;;;;;12.82;66.98;100914.33;1733221;82;27493;-60
2022/05/24 04:37:45;;;;;;;25.35;5.17;;;;;;;12.87;66.89;100917.94;1710910;83;25907;-59
2022/05/24 04:40:14;;;;;;;14.93;4.70;;;;;;;12.94;66.94;100923.09;1735356;82;25963;-59
2022/05/24 04:42:41;;;;;;;14.03;4.67;;;;;;;13.00;66.87;100914.39;1734158;82;25714;-59
2022/05/24 04:45:13;;;;;;;7.28;5.03;;;;;;;13.08;66.80;100916.88;1736292;81;25663;-60
2022/05/24 04:47:40;;;;;;;7.50;4.35;;;;;;;13.19;66.73;100911.77;1712079;82;27572;-59
2022/05/24 04:50:11;;;;;;;24.43;4.72;;;;;;;13.28;66.58;100908.16;1704950;84;25817;-59
2022/05/24 04:52:42;;;;;;;8.15;4.42;;;;;;;13.37;66.40;100911.31;1705683;84;25760;-59
2022/05/24 04:55:12;;;;;;;12.65;5.17;;;;;;;13.46;66.33;100917.19;1706197;84;25475;-59
2022/05/24 04:57:41;;;;;;;11.57;5.05;;;;;;;13.51;66.13;100914.03;1705144;82;25636;-59
2022/05/24 05:00:14;;;;;;;7.45;5.12;;;;;;;13.59;66.18;100917.31;1705977;82;27620;-59
2022/05/24 05:02:38;;;;;;;32.78;6.25;;;;;;;13.69;66.00;100915.39;1704925;82;25722;-59
2022/05/24 05:05:07;;;;;;;37.78;6.53;;;;;;;13.81;65.80;100921.42;1696011;84;25832;-60
2022/05/24 05:07:34;;;;;;;23.38;5.62;;;;;;;13.88;65.53;100920.31;1706316;83;25838;-59
2022/05/24 05:10:01;;;;;;;26.48;5.72;;;;;;;13.93;65.22;100921.55;1708677;82;25810;-60
2022/05/24 05:12:28;;;;;;;33.80;5.65;;;;;;;13.98;65.05;100915.67;1704072;84;27531;-59
2022/05/24 05:14:54;;;;;;;12.20;5.12;;;;;;;14.03;64.80;100923.33;1735211;82;25737;-59
2022/05/24 05:17:21;;;;;;;11.83;5.45;;;;;;;14.04;64.58;100920.45;1735680;82;25769;-59
2022/05/24 05:19:48;;;;;;;9.60;4.67;;;;;;;14.04;64.38;100925.87;1734681;82;26266;-59
2022/05/24 05:22:18;;;;;;;11.90;3.42;;;;;;;14.01;64.35;100922.63;1735390;81;25919;-59
2022/05/24 05:24:45;;;;;;;8.48;3.17;;;;;;;14.00;64.30;100925.84;1734218;82;27539;-59
2022/05/24 05:27:12;;;;;;;11.88;3.60;;;;;;;13.97;64.34;100919.90;1731938;81;25802;-59
2022/05/24 05:32:32;;;;;;;13.80;4.60;;;;;;;13.97;64.37;100915.84;1734483;82;26224;-59
2022/05/24 05:35:00;;;;;;;10.65;4.60;;;;;;;13.98;64.57;100926.50;1729628;82;25844;-59
2022/05/24 05:37:30;;;;;;;17.32;4.53;;;;;;;13.99;64.71;100930.03;1725986;82;27473;-59
2022/05/24 05:39:59;;;;;;;11.38;4.45;;;;;;;13.99;64.58;100931.39;1731407;82;25826;-59
2022/05/24 05:42:27;;;;;;;7.67;4.20;;;;;;;13.99;64.69;100934.96;1727550;82;25752;-59
2022/05/24 05:44:54;;;;;;;20.62;4.65;;;;;;;14.00;64.69;100933.09;1737398;81;25855;-59
2022/05/24 05:47:21;;;;;;;9.35;3.67;;;;;;;14.04;65.01;100939.91;1730903;81;26120;-59
2022/05/24 05:49:48;;;;;;;15.28;3.47;;;;;;;14.07;65.23;100937.73;1735502;82;27487;-60
2022/05/24 05:52:17;;;;;;;10.30;3.58;;;;;;;14.12;64.99;100940.50;1734046;82;25475;-59
2022/05/24 05:54:44;;;;;;;4.62;2.72;;;;;;;14.18;64.97;100943.41;1735018;82;25766;-59
2022/05/24 05:57:12;;;;;;;10.25;2.55;;;;;;;14.24;64.84;100939.23;1734712;82;25654;-59
2022/05/24 05:59:38;;;;;;;8.13;2.87;;;;;;;14.30;64.77;100944.00;1723138;82;25921;-59
2022/05/24 06:02:07;;;;;;;5.22;3.00;;;;;;;14.38;64.66;100941.39;1734456;82;27482;-59
2022/05/24 06:04:34;;;;;;;5.05;2.37;;;;;;;14.46;64.63;100939.23;1730409;82;25925;-58
2022/05/24 06:07:00;;;;;;;6.67;2.67;;;;;;;14.52;64.25;100939.95;1733428;82;25785;-59
2022/05/24 06:09:27;;;;;;;17.95;3.20;;;;;;;14.57;64.22;100936.77;1734615;82;25792;-59
2022/05/24 06:11:56;;;;;;;31.17;3.95;;;;;;;14.66;64.20;100925.02;1735590;81;26109;-59
2022/05/24 06:14:22;;;;;;;13.25;3.25;;;;;;;14.77;64.20;100925.27;1735944;82;27507;-59
2022/05/24 06:16:49;;;;;;;28.10;3.62;;;;;;;14.84;64.16;100929.03;1735555;82;25805;-59
2022/05/24 06:19:15;;;;;;;10.68;3.50;;;;;;;14.93;64.10;100933.98;1735680;82;25661;-59
2022/05/24 06:21:43;;;;;;;15.05;3.25;;;;;;;15.00;63.99;100930.12;1735746;81;25939;-59
2022/05/24 06:24:10;;;;;;;17.55;3.17;;;;;;;15.09;63.89;100932.39;1735435;82;26192;-59
2022/05/24 06:26:37;;;;;;;10.05;3.20;;;;;;;15.17;63.71;100932.42;1734303;82;27672;-59
2022/05/24 06:29:05;;;;;;;9.03;2.45;;;;;;;15.23;63.48;100929.05;1735462;82;25714;-59
2022/05/24 06:31:33;;;;;;;9.28;2.27;;;;;;;15.29;63.20;100931.62;1724542;82;26004;-59
2022/05/24 06:34:00;;;;;;;4.08;2.30;;;;;;;15.33;62.92;100940.61;1734744;82;25949;-59
2022/05/24 06:36:26;;;;;;;8.38;2.37;;;;;;;15.40;61.86;100935.88;1733756;82;25803;-59
2022/05/24 06:38:53;;;;;;;14.73;2.50;;;;;;;15.45;61.39;100944.39;1735111;82;27490;-59
2022/05/24 06:41:21;;;;;;;16.40;2.90;;;;;;;15.48;61.26;100940.84;1734964;82;25726;-59
2022/05/24 06:43:48;;;;;;;9.35;2.58;;;;;;;15.54;61.08;100938.47;1730293;82;25453;-59
2022/05/24 06:46:15;;;;;;;9.05;2.10;;;;;;;15.58;60.84;100935.27;1725589;81;25858;-59
2022/05/24 06:48:43;;;;;;;17.45;3.05;;;;;;;15.63;60.18;100941.06;1723209;82;25747;-59
2022/05/24 06:51:17;;;;;;;5.62;2.17;;;;;;;15.72;59.00;100938.37;1729808;82;27530;-59
2022/05/24 06:53:47;;;;;;;8.30;2.25;;;;;;;15.79;58.39;100935.33;1735162;82;25715;-59
2022/05/24 06:56:14;;;;;;;4.92;2.00;;;;;;;15.83;58.55;100945.33;1730043;81;26202;-59
2022/05/24 06:58:44;;;;;;;14.83;2.55;;;;;;;15.87;58.45;100947.58;1731572;82;28052;-59
2022/05/24 07:03:57;;;;;;;5.33;2.65;;;;;;;16.05;57.23;100946.58;1730490;82;27712;-59
2022/05/24 07:06:25;;;;;;;5.45;2.80;;;;;;;16.12;57.37;100944.89;1729706;82;26155;-59
2022/05/24 07:08:53;;;;;;;8.85;2.02;;;;;;;16.16;57.33;100948.11;1707550;82;25823;-59
2022/05/24 07:11:22;;;;;;;5.22;1.98;;;;;;;16.20;55.83;100942.17;1735186;82;25827;-59
2022/05/24 07:13:49;;;;;;;9.70;2.05;;;;;;;16.27;56.11;100943.71;1735540;81;25863;-59
2022/05/24 07:16:15;;;;;;;14.40;2.35;;;;;;;16.38;56.31;100947.94;1735534;82;27654;-59
2022/05/24 07:18:42;;;;;;;8.95;2.22;;;;;;;16.47;54.85;100949.64;1735388;82;25755;-59
2022/05/24 07:21:10;;;;;;;11.68;2.08;;;;;;;16.51;53.67;100941.50;1734068;81;25745;-59
2022/05/24 07:23:38;;;;;;;3.92;2.37;;;;;;;16.52;54.41;100943.69;1734230;81;25829;-59
2022/05/24 07:26:15;;;;;;;3.95;2.27;;;;;;;16.58;54.73;100947.10;1735776;82;25747;-60
2022/05/24 07:28:43;;;;;;;8.98;2.17;;;;;;;16.65;54.94;100945.39;1735015;82;27555;-59
2022/05/24 07:31:10;;;;;;;6.50;3.20;;;;;;;16.72;55.03;100947.75;1734561;82;25494;-60
2022/05/24 07:33:38;;;;;;;20.25;3.47;;;;;;;16.83;55.05;100942.98;1734739;82;25471;-59
2022/05/24 07:36:07;;;;;;;14.33;3.30;;;;;;;16.96;54.74;100946.55;1734705;82;25761;-59
2022/05/24 07:38:34;;;;;;;2.95;2.40;;;;;;;17.07;54.04;100939.88;1733730;82;25792;-59
2022/05/24 07:46:34;;;;;;;8.95;2.10;;;;;;;17.49;53.61;100928.66;1703247;84;25822;-59
2022/05/24 07:49:01;;;;;;;25.62;2.72;;;;;;;17.71;53.17;100926.66;1735131;82;25934;-59
2022/05/24 07:51:28;;;;;;;8.33;2.70;;;;;;;17.88;51.91;100927.42;1758971;81;25843;-59
2022/05/24 07:53:55;;;;;;;9.13;2.40;;;;;;;18.06;51.51;100925.28;1761958;81;27697;-59
2022/05/24 07:56:22;;;;;;;10.30;2.30;;;;;;;18.24;50.89;100918.14;1761803;81;25699;-59
2022/05/24 07:58:48;;;;;;;7.65;2.05;;;;;;;18.40;51.05;100923.10;1747819;81;25756;-59
2022/05/24 08:01:16;;;;;;;6.65;2.22;;;;;;;18.59;51.00;100921.22;1761235;81;25810;-59
2022/05/24 08:03:44;;;;;;;8.28;4.42;;;;;;;18.84;50.70;100913.31;1753141;81;25801;-59
2022/05/24 08:06:12;;;;;;;4.35;2.00;;;;;;;19.11;49.55;100921.36;1737732;82;27560;-59
2022/05/24 08:08:39;;;;;;;15.88;2.92;;;;;;;19.37;48.65;100924.09;1736844;81;25828;-59
2022/05/24 08:11:07;;;;;;;3.67;2.10;;;;;;;19.58;46.09;100927.92;1735837;82;25481;-59
2022/05/24 08:13:35;;;;;;;10.53;2.42;;;;;;;19.76;45.34;100917.95;1731198;82;25955;-59
2022/05/24 08:16:03;;;;;;;6.05;1.98;;;;;;;19.89;45.95;100926.83;1735496;82;25872;-59
2022/05/24 08:18:30;;;;;;;9.20;2.22;;;;;;;20.10;45.58;100923.26;1734449;82;27494;-59
2022/05/24 08:20:58;;;;;;;6.28;1.50;;;;;;;20.29;45.40;100923.10;1734751;81;25825;-59
2022/05/24 08:23:32;;;;;;;7.25;1.12;;;;;;;20.39;43.23;100927.70;1735435;82;25738;-59
2022/05/24 08:25:57;;;;;;;1.70;0.98;;;;;;;20.36;42.32;100922.63;1735292;82;25903;-59
2022/05/24 08:28:24;;;;;;;9.30;2.25;;;;;;;20.38;42.63;100924.65;1735552;82;25746;-59
2022/05/24 08:30:55;;;;;;;10.68;2.70;;;;;;;20.44;41.87;100925.22;1698282;84;27604;-59
2022/05/24 08:33:24;;;;;;;15.85;2.37;;;;;;;20.52;41.97;100926.14;1736849;82;25721;-59
2022/05/24 08:35:52;;;;;;;7.83;2.10;;;;;;;20.62;41.56;100924.73;1734605;82;25789;-59
2022/05/24 08:38:19;;;;;;;34.88;3.15;;;;;;;20.69;42.04;100920.70;1735239;82;26518;-59
2022/05/24 08:40:49;;;;;;;19.15;3.17;;;;;;;20.80;42.77;100926.98;1735807;82;25895;-59
2022/05/24 08:43:44;;;;;;;52.70;4.20;;;;;;;20.96;42.89;100922.26;1734482;82;27483;-59
2022/05/24 08:49:14;;;;;;;65.70;4.05;;;;;;;21.35;41.07;100918.02;1736013;81;25761;-59
2022/05/24 08:51:58;;;;;;;9.88;1.80;;;;;;;21.56;40.37;100912.09;1734820;82;25942;-59
2022/05/24 08:54:38;;;;;;;23.70;3.47;;;;;;;21.75;39.93;100909.66;1735330;82;25854;-59
2022/05/24 08:57:13;;;;;;;9.95;3.15;;;;;;;21.98;39.92;100903.80;1730018;81;27619;-59
2022/05/24 08:59:51;;;;;;;10.30;1.92;;;;;;;22.19;38.88;100907.70;1731951;82;25885;-59
2022/05/24 09:02:21;;;;;;;7.50;1.75;;;;;;;22.30;38.91;100902.13;1728639;83;25565;-59
2022/05/24 09:04:49;;;;;;;5.90;1.80;;;;;;;22.44;37.95;100893.41;1732886;82;25879;-59
2022/05/24 09:07:37;;;;;;;12.75;3.27;;;;;;;22.58;37.84;100892.01;1735808;82;25790;-60
2022/05/24 09:10:08;;;;;;;6.20;1.80;;;;;;;22.81;38.75;100889.66;1731853;82;27339;-59
2022/05/24 09:12:49;;;;;;;12.88;1.87;;;;;;;23.14;37.50;100891.45;1736013;81;25792;-59
2022/05/24 09:15:44;;;;;;;4.67;1.70;;;;;;;23.42;37.39;100888.07;1692277;82;25805;-60
2022/05/24 09:18:34;;;;;;;7.40;1.40;;;;;;;23.79;37.13;100890.20;1735240;81;25748;-59
2022/05/24 09:21:01;;;;;;;8.93;1.95;;;;;;;24.00;36.69;100887.11;1735921;82;25548;-60
2022/05/24 09:23:36;;;;;;;6.10;1.60;;;;;;;23.83;36.64;100887.30;1738537;82;29634;-60
2022/05/24 09:26:09;;;;;;;3.20;1.35;;;;;;;23.44;36.35;100887.33;1735775;82;25832;-60
2022/05/24 09:29:11;;;;;;;9.48;1.37;;;;;;;23.22;36.44;100882.69;1732836;82;25761;-60
2022/05/24 09:31:43;;;;;;;3.85;2.22;;;;;;;23.04;35.94;100877.88;1733456;82;25816;-60
2022/05/24 09:34:29;;;;;;;6.70;1.72;;;;;;;23.13;36.06;100878.78;1705947;82;25853;-60
2022/05/24 09:37:03;;;;;;;6.65;1.57;;;;;;;23.65;36.33;100872.97;1711706;82;29047;-60
2022/05/24 09:39:38;;;;;;;8.45;1.55;;;;;;;24.17;34.54;100872.30;1725956;83;25718;-60
2022/05/24 09:42:13;;;;;;;9.68;1.60;;;;;;;24.14;34.65;100879.60;1723880;82;25505;-60
2022/05/24 09:45:11;;;;;;;2.92;1.37;;;;;;;23.96;33.04;100874.89;1723192;82;26415;-60
2022/05/24 09:47:49;;;;;;;7.85;1.37;;;;;;;24.05;33.48;100873.56;1725436;82;25793;-60
2022/05/24 09:50:39;;;;;;;3.55;1.55;;;;;;;24.43;33.32;100868.16;1734127;82;28558;-60
2022/05/24 09:53:16;;;;;;;7.33;1.20;;;;;;;24.90;32.92;100871.27;1732374;82;26112;-60
2022/05/24 09:55:48;;;;;;;2.12;1.15;;;;;;;25.50;31.38;100866.09;1732908;82;25762;-59
2022/05/24 09:58:23;;;;;;;7.67;1.30;;;;;;;25.44;31.17;100864.59;1732137;82;26626;-59
2022/05/24 10:01:04;;;;;;;5.50;1.27;;;;;;;25.18;31.80;100865.75;1716528;82;25799;-59
2022/05/24 10:03:44;;;;;;;8.05;1.15;;;;;;;25.15;31.69;100863.45;1730305;82;27590;-59
2022/05/24 10:06:30;;;;;;;6.50;1.85;;;;;;;25.43;31.63;100858.78;1729680;82;25737;-59
2022/05/24 10:09:40;;;;;;;4.15;1.37;;;;;;;25.50;31.35;100863.34;1731160;81;25767;-59
2022/05/24 10:12:35;;;;;;;9.75;1.30;;;;;;;25.89;30.63;100857.77;1728168;83;26830;-59
2022/05/24 10:15:17;;;;;;;21.17;2.15;;;;;;;26.34;30.43;100856.94;1731762;82;25687;-59
2022/05/24 10:18:30;;;;;;;23.85;1.52;;;;;;;27.39;28.66;100854.23;1732928;82;27485;-59
2022/05/24 10:21:08;;;;;;;3.20;1.37;;;;;;;27.09;28.90;100849.80;1735484;82;25985;-60
2022/05/24 10:24:13;;;;;;;25.70;1.70;;;;;;;26.61;29.04;100853.17;1735133;82;25821;-60
2022/05/24 10:27:17;;;;;;;25.75;1.60;;;;;;;26.12;29.15;100857.55;1736191;82;25802;-59
2022/05/24 10:29:58;;;;;;;12.88;1.17;;;;;;;25.56;29.11;100853.62;1734536;82;25830;-59
2022/05/24 10:39:14;;;;;;;2.08;0.95;;;;;;;24.93;30.50;100857.06;1735224;82;25841;-59
2022/05/24 10:42:21;;;;;;;8.45;1.10;;;;;;;24.79;29.85;100866.00;1655536;82;25805;-60
2022/05/24 10:45:11;;;;;;;4.08;0.90;;;;;;;24.59;30.25;100855.71;1728673;81;25811;-59
2022/05/24 10:47:49;;;;;;;4.33;1.37;;;;;;;24.86;30.18;100843.92;1727778;82;27544;-59
2022/05/24 10:50:38;;;;;;;3.98;0.90;;;;;;;25.45;30.14;100847.52;1730134;81;25748;-59
2022/05/24 10:53:16;;;;;;;3.45;1.30;;;;;;;26.64;28.38;100836.11;1726172;82;25727;-59
2022/05/24 10:55:55;;;;;;;7.72;1.15;;;;;;;28.01;27.80;100828.26;1732613;82;25806;-59
2022/05/24 10:58:20;;;;;;;1.22;0.90;;;;;;;28.38;26.76;100836.87;1730906;82;25460;-59
2022/05/24 11:01:06;;;;;;;4.42;1.12;;;;;;;28.04;26.92;100834.67;1728492;82;27472;-59
2022/05/24 11:03:48;;;;;;;9.33;1.10;;;;;;;27.73;26.50;100831.38;1703375;82;25577;-59
2022/05/24 11:06:29;;;;;;;5.90;1.10;;;;;;;27.15;26.03;100828.66;1726988;82;25782;-59
2022/05/24 11:09:06;;;;;;;9.75;1.17;;;;;;;26.79;26.37;100827.92;1726214;82;53568;-59
2022/05/24 11:11:47;;;;;;;5.67;1.10;;;;;;;26.37;26.68;100830.28;1724709;82;25684;-59
2022/05/24 11:14:24;;;;;;;10.70;1.25;;;;;;;26.06;27.79;100830.88;1724865;82;27484;-59
2022/05/24 11:16:53;;;;;;;4.95;0.70;;;;;;;25.97;28.09;100836.44;1727233;82;25542;-60
2022/05/24 11:19:28;;;;;;;15.75;2.47;;;;;;;25.82;27.52;100835.55;1730693;82;25672;-59
2022/05/24 11:22:18;;;;;;;51.30;2.87;;;;;;;25.62;27.68;100823.74;1731990;82;25811;-59
2022/05/24 11:25:27;;;;;;;6.62;1.17;;;;;;;25.48;27.87;100831.92;1731595;82;26108;-59
2022/05/24 11:28:08;;;;;;;4.28;0.90;;;;;;;25.31;27.86;100831.17;1729429;82;27434;-59
2022/05/24 11:30:39;;;;;;;7.87;1.05;;;;;;;25.22;27.41;100837.22;1731475;82;25759;-59
2022/05/24 11:33:30;;;;;;;5.92;0.98;;;;;;;25.08;27.09;100833.28;1731296;82;25842;-59
2022/05/24 11:36:18;;;;;;;5.47;0.72;;;;;;;24.95;27.29;100830.69;1731717;82;27724;-60
2022/05/24 11:38:49;;;;;;;6.60;1.00;;;;;;;24.90;27.53;100825.87;1732069;82;25778;-59
2022/05/24 11:41:31;;;;;;;8.83;1.00;;;;;;;24.97;27.76;100822.49;1732285;82;27604;-59
2022/05/24 11:44:03;;;;;;;6.28;1.15;;;;;;;24.96;27.77;100820.84;1732077;82;25981;-60
2022/05/24 11:46:41;;;;;;;2.77;1.02;;;;;;;25.05;28.09;100815.84;1712856;81;25797;-60
2022/05/24 11:49:24;;;;;;;4.37;0.82;;;;;;;25.18;27.56;100815.38;1693764;82;25865;-60
2022/05/24 11:51:56;;;;;;;5.73;1.00;;;;;;;25.49;27.21;100810.71;1677658;82;25910;-60
2022/05/24 11:54:28;;;;;;;3.30;0.90;;;;;;;27.13;25.93;100803.20;1694362;82;27634;-60
2022/05/24 11:57:09;;;;;;;4.73;1.03;;;;;;;28.40;24.42;100804.83;1697728;84;25642;-60
2022/05/24 11:59:48;;;;;;;4.33;1.15;;;;;;;29.01;24.36;100797.86;1704477;84;25855;-61
2022/05/24 12:02:33;;;;;;;2.65;1.10;;;;;;;28.87;23.90;100797.98;1703321;82;25808;-59
2022/05/24 12:08:04;;;;;;;3.42;0.68;;;;;;;28.23;24.26;100789.63;1681389;84;27471;-60
2022/05/24 12:10:55;;;;;;;1.20;0.40;;;;;;;28.06;24.39;100793.23;1687743;84;25856;-60
2022/05/24 12:13:33;;;;;;;7.62;1.00;;;;;;;28.84;23.70;100783.27;1735446;82;25877;-59
2022/05/24 12:16:04;;;;;;;41.45;3.55;;;;;;;29.71;23.33;100779.75;1734496;82;25817;-60
2022/05/24 12:18:46;;;;;;;10.70;1.55;;;;;;;30.01;22.26;100775.55;1733059;82;25782;-60
2022/05/24 12:21:34;;;;;;;12.53;1.07;;;;;;;30.23;22.73;100786.50;1727503;82;27570;-60
2022/05/24 12:24:30;;;;;;;1.95;0.65;;;;;;;30.03;22.14;100780.28;1728232;83;25742;-60